createdAt,value
2022-10-02T00:06:48.000Z,94.0
2022-10-02T00:36:52.000Z,94.0
2022-10-02T01:06:58.348Z,95
2022-10-02T01:37:02.000Z,95.0
2022-10-02T02:07:09.000Z,95.0
2022-10-02T02:37:11.350Z,95
2022-10-02T03:07:20.000Z,95.0
2022-10-02T03:37:22.000Z,96.0
2022-10-02T04:07:24.000Z,95.0
2022-10-02T04:37:28.000Z,95.0
2022-10-02T05:07:37.000Z,95.0
2022-10-02T05:37:38.000Z,95.0
2022-10-02T06:07:42.000Z,95.0
2022-10-02T06:37:43.000Z,95.0
2022-10-02T07:07:46.000Z,95.0
2022-10-02T07:37:52.000Z,94.0
2022-10-02T08:07:55.000Z,92.0
2022-10-02T08:38:06.000Z,84.0
2022-10-02T09:08:07.000Z,80.0
2022-10-02T09:38:09.000Z,75.0
2022-10-02T10:08:14.000Z,70.0
2022-10-02T10:38:22.000Z,70.0
2022-10-02T11:08:22.000Z,71.0
2022-10-02T11:38:23.000Z,72.0
2022-10-02T12:08:24.000Z,79.0
2022-10-02T12:38:27.000Z,87.0
2022-10-02T13:08:30.000Z,89.0
2022-10-02T13:38:31.000Z,88.0
2022-10-02T14:08:33.000Z,86.0
2022-10-02T14:38:35.000Z,89.0
2022-10-02T15:08:41.625Z,90
2022-10-02T15:38:45.809Z,90
2022-10-02T16:08:48.000Z,91.0
2022-10-02T16:38:54.000Z,92.0
2022-10-02T17:09:00.341Z,92
2022-10-02T17:39:01.000Z,92.0
2022-10-02T18:09:05.337Z,92
2022-10-02T18:39:08.000Z,93.0
2022-10-02T19:09:11.000Z,93.0
2022-10-02T19:39:13.464Z,93
2022-10-02T20:09:15.000Z,94.0
2022-10-02T20:39:22.000Z,93.0
2022-10-02T21:09:25.000Z,94.0
2022-10-02T21:39:27.000Z,93.0
2022-10-02T22:09:30.000Z,93.0
2022-10-02T22:39:39.000Z,93.0
2022-10-02T23:09:43.000Z,93.0
2022-10-02T23:39:45.000Z,95.0
